sensor_id;sensor_type;location;lat;lon;timestamp;pressure;altitude;pressure_sealevel;temperature;humidity
45763;BME280;37512;52.408;13.356;2023-09-19T00:00:01;100054.44;;;25.30;59.87
45763;BME280;37512;52.408;13.356;2023-09-19T00:04:03;100049.47;;;25.79;57.35
45763;BME280;37512;52.408;13.356;2023-09-19T00:08:11;100047.00;;;26.40;55.91
45763;BME280;37512;52.408;13.356;2023-09-19T00:12:15;100041.34;;;25.72;57.02
45763;BME280;37512;52.408;13.356;2023-09-19T00:16:16;100042.97;;;25.63;57.76
45763;BME280;37512;52.408;13.356;2023-09-19T00:20:20;100038.25;;;25.45;58.76
45763;BME280;37512;52.408;13.356;2023-09-19T00:24:24;100033.66;;;25.87;57.37
45763;BME280;37512;52.408;13.356;2023-09-19T00:28:25;100038.41;;;25.66;58.07
45763;BME280;37512;52.408;13.356;2023-09-19T00:32:27;100040.03;;;24.76;60.39
45763;BME280;37512;52.408;13.356;2023-09-19T00:36:33;100040.09;;;25.24;58.46
45763;BME280;37512;52.408;13.356;2023-09-19T00:40:35;100036.03;;;25.16;58.88
45763;BME280;37512;52.408;13.356;2023-09-19T00:44:38;100030.59;;;25.91;55.98
45763;BME280;37512;52.408;13.356;2023-09-19T00:48:42;100039.56;;;25.59;58.16
45763;BME280;37512;52.408;13.356;2023-09-19T00:52:50;100032.81;;;25.72;56.76
45763;BME280;37512;52.408;13.356;2023-09-19T00:56:54;100040.81;;;24.77;60.13
45763;BME280;37512;52.408;13.356;2023-09-19T01:00:56;100042.38;;;25.20;59.00
45763;BME280;37512;52.408;13.356;2023-09-19T01:04:58;100041.16;;;24.18;62.81
45763;BME280;37512;52.408;13.356;2023-09-19T01:09:00;100044.94;;;24.76;59.33
45763;BME280;37512;52.408;13.356;2023-09-19T01:13:20;100044.63;;;24.13;62.06
45763;BME280;37512;52.408;13.356;2023-09-19T01:17:33;100038.91;;;24.50;61.80
45763;BME280;37512;52.408;13.356;2023-09-19T01:21:46;100037.84;;;25.04;59.89
45763;BME280;37512;52.408;13.356;2023-09-19T01:26:05;100044.66;;;23.94;64.74
45763;BME280;37512;52.408;13.356;2023-09-19T01:30:10;100047.41;;;24.50;61.62
45763;BME280;37512;52.408;13.356;2023-09-19T01:34:14;100043.88;;;24.64;60.96
45763;BME280;37512;52.408;13.356;2023-09-19T01:38:16;100036.41;;;24.76;60.28
45763;BME280;37512;52.408;13.356;2023-09-19T01:42:28;100043.66;;;25.10;57.83
45763;BME280;37512;52.408;13.356;2023-09-19T01:46:39;100053.50;;;25.00;59.26
45763;BME280;37512;52.408;13.356;2023-09-19T01:50:48;100045.00;;;25.24;58.69
45763;BME280;37512;52.408;13.356;2023-09-19T01:54:57;100053.66;;;25.30;58.69
45763;BME280;37512;52.408;13.356;2023-09-19T01:59:08;100047.53;;;25.46;57.25
45763;BME280;37512;52.408;13.356;2023-09-19T02:03:12;100055.09;;;24.49;61.12
45763;BME280;37512;52.408;13.356;2023-09-19T02:07:16;100052.63;;;24.24;61.70
45763;BME280;37512;52.408;13.356;2023-09-19T02:11:18;100058.13;;;25.21;57.50
45763;BME280;37512;52.408;13.356;2023-09-19T02:15:20;100071.56;;;23.90;62.54
45763;BME280;37512;52.408;13.356;2023-09-19T02:19:23;100071.97;;;24.53;60.85
45763;BME280;37512;52.408;13.356;2023-09-19T02:23:25;100082.69;;;25.24;57.07
45763;BME280;37512;52.408;13.356;2023-09-19T02:27:27;100091.78;;;25.62;56.20
45763;BME280;37512;52.408;13.356;2023-09-19T02:31:28;100081.97;;;25.63;55.45
45763;BME280;37512;52.408;13.356;2023-09-19T02:35:31;100085.06;;;25.74;55.48
45763;BME280;37512;52.408;13.356;2023-09-19T02:39:37;100083.25;;;24.71;59.10
45763;BME280;37512;52.408;13.356;2023-09-19T02:43:39;100090.16;;;25.13;57.10
45763;BME280;37512;52.408;13.356;2023-09-19T02:47:41;100099.38;;;24.56;61.21
45763;BME280;37512;52.408;13.356;2023-09-19T02:51:43;100109.97;;;24.18;60.96
45763;BME280;37512;52.408;13.356;2023-09-19T02:55:44;100110.31;;;23.93;62.61
45763;BME280;37512;52.408;13.356;2023-09-19T02:59:47;100120.19;;;24.43;60.47
45763;BME280;37512;52.408;13.356;2023-09-19T03:03:49;100114.53;;;24.53;60.82
45763;BME280;37512;52.408;13.356;2023-09-19T03:07:51;100119.06;;;25.11;57.65
45763;BME280;37512;52.408;13.356;2023-09-19T03:11:52;100116.38;;;25.08;57.97
45763;BME280;37512;52.408;13.356;2023-09-19T03:15:55;100124.56;;;24.63;59.30
45763;BME280;37512;52.408;13.356;2023-09-19T03:19:59;100117.94;;;24.75;58.92
45763;BME280;37512;52.408;13.356;2023-09-19T03:24:01;100127.72;;;24.47;59.37
45763;BME280;37512;52.408;13.356;2023-09-19T03:28:03;100135.00;;;24.38;60.05
45763;BME280;37512;52.408;13.356;2023-09-19T03:32:08;100134.03;;;25.12;57.33
45763;BME280;37512;52.408;13.356;2023-09-19T03:36:13;100127.00;;;24.98;58.34
45763;BME280;37512;52.408;13.356;2023-09-19T03:40:17;100149.06;;;23.37;63.54
45763;BME280;37512;52.408;13.356;2023-09-19T03:44:21;100138.31;;;24.37;61.30
45763;BME280;37512;52.408;13.356;2023-09-19T03:48:23;100150.06;;;23.52;62.79
45763;BME280;37512;52.408;13.356;2023-09-19T03:52:24;100152.03;;;22.93;64.33
45763;BME280;37512;52.408;13.356;2023-09-19T03:56:26;100142.91;;;23.88;60.16
45763;BME280;37512;52.408;13.356;2023-09-19T04:00:27;100147.19;;;23.34;62.21
45763;BME280;37512;52.408;13.356;2023-09-19T04:04:30;100158.69;;;23.49;61.57
45763;BME280;37512;52.408;13.356;2023-09-19T04:08:32;100157.94;;;22.32;65.85
45763;BME280;37512;52.408;13.356;2023-09-19T04:12:33;100154.06;;;24.29;59.34
45763;BME280;37512;52.408;13.356;2023-09-19T04:16:35;100157.50;;;24.60;57.48
45763;BME280;37512;52.408;13.356;2023-09-19T04:20:37;100164.16;;;24.02;58.26
45763;BME280;37512;52.408;13.356;2023-09-19T04:24:38;100161.16;;;24.15;57.42
45763;BME280;37512;52.408;13.356;2023-09-19T04:28:40;100173.09;;;24.74;55.87
45763;BME280;37512;52.408;13.356;2023-09-19T04:32:42;100176.91;;;24.43;57.15
45763;BME280;37512;52.408;13.356;2023-09-19T04:36:43;100187.16;;;24.13;58.30
45763;BME280;37512;52.408;13.356;2023-09-19T04:40:46;100182.91;;;24.27;56.97
45763;BME280;37512;52.408;13.356;2023-09-19T04:44:47;100195.34;;;23.43;59.60
45763;BME280;37512;52.408;13.356;2023-09-19T04:48:50;100199.25;;;22.52;62.41
45763;BME280;37512;52.408;13.356;2023-09-19T04:52:52;100199.53;;;22.76;61.10
45763;BME280;37512;52.408;13.356;2023-09-19T04:56:55;100196.03;;;23.16;59.17
45763;BME280;37512;52.408;13.356;2023-09-19T05:00:57;100212.09;;;22.97;57.89
45763;BME280;37512;52.408;13.356;2023-09-19T05:04:58;100211.41;;;24.33;55.13
45763;BME280;37512;52.408;13.356;2023-09-19T05:09:02;100215.38;;;23.17;57.04
45763;BME280;37512;52.408;13.356;2023-09-19T05:13:06;100219.88;;;22.84;57.28
45763;BME280;37512;52.408;13.356;2023-09-19T05:17:13;100230.31;;;23.49;55.79
45763;BME280;37512;52.408;13.356;2023-09-19T05:21:15;100238.63;;;23.53;54.97
45763;BME280;37512;52.408;13.356;2023-09-19T05:25:16;100252.38;;;23.64;54.47
45763;BME280;37512;52.408;13.356;2023-09-19T05:29:20;100249.25;;;23.71;53.33
45763;BME280;37512;52.408;13.356;2023-09-19T05:33:21;100253.88;;;23.87;53.65
45763;BME280;37512;52.408;13.356;2023-09-19T05:37:23;100254.81;;;23.74;53.44
45763;BME280;37512;52.408;13.356;2023-09-19T05:41:24;100269.53;;;24.19;52.21
45763;BME280;37512;52.408;13.356;2023-09-19T05:45:26;100270.75;;;23.90;53.06
45763;BME280;37512;52.408;13.356;2023-09-19T05:49:29;100273.91;;;22.42;56.71
45763;BME280;37512;52.408;13.356;2023-09-19T05:53:30;100290.78;;;23.74;53.31
45763;BME280;37512;52.408;13.356;2023-09-19T05:57:32;100286.97;;;22.61;56.67
45763;BME280;37512;52.408;13.356;2023-09-19T06:01:33;100290.41;;;23.53;53.65
45763;BME280;37512;52.408;13.356;2023-09-19T06:05:35;100302.00;;;23.46;53.20
45763;BME280;37512;52.408;13.356;2023-09-19T06:09:37;100312.50;;;22.10;56.26
45763;BME280;37512;52.408;13.356;2023-09-19T06:13:40;100302.38;;;22.12;56.81
45763;BME280;37512;52.408;13.356;2023-09-19T06:17:53;100318.81;;;22.74;55.63
45763;BME280;37512;52.408;13.356;2023-09-19T06:22:00;100324.44;;;22.52;55.50
45763;BME280;37512;52.408;13.356;2023-09-19T06:26:02;100325.38;;;23.59;52.38
45763;BME280;37512;52.408;13.356;2023-09-19T06:30:05;100334.22;;;24.02;52.50
45763;BME280;37512;52.408;13.356;2023-09-19T06:34:08;100337.78;;;22.52;55.42
45763;BME280;37512;52.408;13.356;2023-09-19T06:38:09;100331.03;;;22.71;54.97
45763;BME280;37512;52.408;13.356;2023-09-19T06:42:14;100334.84;;;23.66;53.16
45763;BME280;37512;52.408;13.356;2023-09-19T06:46:17;100333.78;;;22.62;55.08
45763;BME280;37512;52.408;13.356;2023-09-19T06:50:21;100339.16;;;23.48;51.82
45763;BME280;37512;52.408;13.356;2023-09-19T06:54:24;100354.47;;;24.32;50.87
45763;BME280;37512;52.408;13.356;2023-09-19T06:58:26;100361.88;;;23.57;52.06
45763;BME280;37512;52.408;13.356;2023-09-19T07:02:27;100360.59;;;23.05;53.65
45763;BME280;37512;52.408;13.356;2023-09-19T07:06:29;100355.59;;;23.63;51.49
45763;BME280;37512;52.408;13.356;2023-09-19T07:10:32;100359.91;;;24.08;51.97
45763;BME280;37512;52.408;13.356;2023-09-19T07:14:34;100366.25;;;23.05;53.32
45763;BME280;37512;52.408;13.356;2023-09-19T07:18:35;100375.72;;;24.27;50.39
45763;BME280;37512;52.408;13.356;2023-09-19T07:22:38;100377.63;;;23.58;50.87
45763;BME280;37512;52.408;13.356;2023-09-19T07:26:41;100385.63;;;24.23;49.85
45763;BME280;37512;52.408;13.356;2023-09-19T07:30:42;100379.56;;;23.17;48.97
45763;BME280;37512;52.408;13.356;2023-09-19T07:34:44;100390.22;;;23.89;47.41
45763;BME280;37512;52.408;13.356;2023-09-19T07:38:46;100386.78;;;24.34;46.32
45763;BME280;37512;52.408;13.356;2023-09-19T07:42:48;100399.53;;;23.67;47.57
45763;BME280;37512;52.408;13.356;2023-09-19T07:46:50;100413.03;;;24.26;46.05
45763;BME280;37512;52.408;13.356;2023-09-19T07:50:52;100414.75;;;24.14;47.52
45763;BME280;37512;52.408;13.356;2023-09-19T07:54:55;100405.47;;;24.13;46.96
45763;BME280;37512;52.408;13.356;2023-09-19T07:58:58;100418.19;;;24.09;46.56
45763;BME280;37512;52.408;13.356;2023-09-19T08:03:01;100424.44;;;24.44;45.60
45763;BME280;37512;52.408;13.356;2023-09-19T08:07:13;100421.34;;;24.51;45.21
45763;BME280;37512;52.408;13.356;2023-09-19T08:11:15;100422.53;;;25.37;44.99
45763;BME280;37512;52.408;13.356;2023-09-19T08:15:22;100430.53;;;25.75;42.91
45763;BME280;37512;52.408;13.356;2023-09-19T08:19:24;100417.97;;;25.39;42.95
45763;BME280;37512;52.408;13.356;2023-09-19T08:23:29;100419.06;;;25.05;42.69
45763;BME280;37512;52.408;13.356;2023-09-19T08:27:33;100425.03;;;24.89;43.70
45763;BME280;37512;52.408;13.356;2023-09-19T08:31:36;100421.72;;;24.31;43.49
45763;BME280;37512;52.408;13.356;2023-09-19T08:35:38;100427.09;;;25.07;43.01
45763;BME280;37512;52.408;13.356;2023-09-19T08:39:41;100428.81;;;25.59;41.95
45763;BME280;37512;52.408;13.356;2023-09-19T08:43:42;100434.44;;;24.17;43.14
45763;BME280;37512;52.408;13.356;2023-09-19T08:52:02;100452.34;;;25.51;41.56
45763;BME280;37512;52.408;13.356;2023-09-19T08:56:09;100447.41;;;26.31;40.35
45763;BME280;37512;52.408;13.356;2023-09-19T09:00:12;100458.28;;;24.79;41.76
45763;BME280;37512;52.408;13.356;2023-09-19T09:04:16;100468.31;;;24.21;42.93
45763;BME280;37512;52.408;13.356;2023-09-19T09:08:19;100467.50;;;24.52;42.50
45763;BME280;37512;52.408;13.356;2023-09-19T09:12:23;100460.75;;;24.18;42.80
45763;BME280;37512;52.408;13.356;2023-09-19T09:16:25;100477.75;;;25.54;41.02
45763;BME280;37512;52.408;13.356;2023-09-19T09:20:28;100477.41;;;24.47;41.24
45763;BME280;37512;52.408;13.356;2023-09-19T09:24:30;100469.38;;;25.04;40.68
45763;BME280;37512;52.408;13.356;2023-09-19T09:28:35;100475.56;;;24.53;40.52
45763;BME280;37512;52.408;13.356;2023-09-19T09:32:38;100475.59;;;26.19;37.90
45763;BME280;37512;52.408;13.356;2023-09-19T09:36:56;100483.31;;;24.62;40.21
45763;BME280;37512;52.408;13.356;2023-09-19T09:40:58;100477.41;;;25.80;37.66
45763;BME280;37512;52.408;13.356;2023-09-19T09:49:30;100475.16;;;24.73;38.88
45763;BME280;37512;52.408;13.356;2023-09-19T09:53:38;100476.66;;;25.24;38.49
45763;BME280;37512;52.408;13.356;2023-09-19T09:57:40;100485.78;;;25.00;38.34
45763;BME280;37512;52.408;13.356;2023-09-19T10:01:46;100484.63;;;24.79;37.66
45763;BME280;37512;52.408;13.356;2023-09-19T10:05:53;100484.44;;;24.74;37.05
45763;BME280;37512;52.408;13.356;2023-09-19T10:09:56;100500.66;;;25.60;36.84
45763;BME280;37512;52.408;13.356;2023-09-19T10:14:09;100496.78;;;26.09;37.13
45763;BME280;37512;52.408;13.356;2023-09-19T10:18:12;100492.13;;;25.41;37.51
45763;BME280;37512;52.408;13.356;2023-09-19T10:22:20;100493.88;;;25.20;37.39
45763;BME280;37512;52.408;13.356;2023-09-19T10:26:23;100485.97;;;25.24;35.25
45763;BME280;37512;52.408;13.356;2023-09-19T10:30:27;100496.53;;;25.33;35.21
45763;BME280;37512;52.408;13.356;2023-09-19T10:34:30;100486.13;;;26.95;33.69
45763;BME280;37512;52.408;13.356;2023-09-19T10:38:33;100480.44;;;27.72;33.31
45763;BME280;37512;52.408;13.356;2023-09-19T10:42:37;100475.84;;;25.60;34.96
45763;BME280;37512;52.408;13.356;2023-09-19T10:46:39;100475.19;;;26.36;33.52
45763;BME280;37512;52.408;13.356;2023-09-19T10:54:48;100485.31;;;26.37;32.54
45763;BME280;37512;52.408;13.356;2023-09-19T10:59:17;100488.97;;;25.39;33.64
45763;BME280;37512;52.408;13.356;2023-09-19T11:03:23;100490.47;;;27.05;32.23
45763;BME280;37512;52.408;13.356;2023-09-19T11:07:58;100485.88;;;26.83;31.88
45763;BME280;37512;52.408;13.356;2023-09-19T11:12:01;100479.69;;;27.09;32.35
45763;BME280;37512;52.408;13.356;2023-09-19T11:16:04;100495.56;;;25.92;33.21
45763;BME280;37512;52.408;13.356;2023-09-19T11:28:27;100489.47;;;26.69;32.90
45763;BME280;37512;52.408;13.356;2023-09-19T11:50:01;100505.84;;;25.89;32.94
45763;BME280;37512;52.408;13.356;2023-09-19T11:54:03;100504.72;;;27.05;31.72
45763;BME280;37512;52.408;13.356;2023-09-19T11:58:07;100494.16;;;25.69;33.10
45763;BME280;37512;52.408;13.356;2023-09-19T12:02:11;100498.28;;;25.49;33.68
45763;BME280;37512;52.408;13.356;2023-09-19T12:06:20;100495.50;;;27.34;32.01
45763;BME280;37512;52.408;13.356;2023-09-19T12:10:23;100498.88;;;27.32;30.92
45763;BME280;37512;52.408;13.356;2023-09-19T12:14:26;100508.78;;;27.13;31.61
45763;BME280;37512;52.408;13.356;2023-09-19T12:18:29;100511.19;;;26.05;32.74
45763;BME280;37512;52.408;13.356;2023-09-19T12:22:45;100514.66;;;26.10;32.07
45763;BME280;37512;52.408;13.356;2023-09-19T12:26:48;100497.03;;;26.96;31.26
45763;BME280;37512;52.408;13.356;2023-09-19T12:30:52;100502.16;;;27.07;31.47
45763;BME280;37512;52.408;13.356;2023-09-19T12:34:56;100504.84;;;27.35;31.39
45763;BME280;37512;52.408;13.356;2023-09-19T12:38:58;100499.91;;;27.20;30.52
45763;BME280;37512;52.408;13.356;2023-09-19T12:43:09;100498.97;;;26.23;31.99
45763;BME280;37512;52.408;13.356;2023-09-19T12:47:17;100499.66;;;25.72;32.09
45763;BME280;37512;52.408;13.356;2023-09-19T12:51:34;100482.97;;;26.92;30.31
45763;BME280;37512;52.408;13.356;2023-09-19T12:55:36;100495.38;;;25.95;31.69
45763;BME280;37512;52.408;13.356;2023-09-19T12:59:39;100499.50;;;25.94;32.68
45763;BME280;37512;52.408;13.356;2023-09-19T13:03:41;100498.16;;;26.65;31.49
45763;BME280;37512;52.408;13.356;2023-09-19T13:07:44;100501.84;;;26.47;31.75
45763;BME280;37512;52.408;13.356;2023-09-19T13:11:48;100507.59;;;25.77;33.03
45763;BME280;37512;52.408;13.356;2023-09-19T13:15:52;100498.63;;;26.73;31.60
45763;BME280;37512;52.408;13.356;2023-09-19T13:19:54;100498.59;;;25.60;32.49
45763;BME280;37512;52.408;13.356;2023-09-19T13:28:21;100493.09;;;25.57;33.35
45763;BME280;37512;52.408;13.356;2023-09-19T13:32:23;100492.06;;;26.48;32.44
45763;BME280;37512;52.408;13.356;2023-09-19T13:36:24;100485.19;;;25.33;33.13
45763;BME280;37512;52.408;13.356;2023-09-19T13:40:26;100496.03;;;24.98;32.99
45763;BME280;37512;52.408;13.356;2023-09-19T13:44:32;100497.94;;;25.56;32.56
45763;BME280;37512;52.408;13.356;2023-09-19T13:48:33;100493.56;;;25.46;32.80
45763;BME280;37512;52.408;13.356;2023-09-19T13:52:36;100480.66;;;26.58;31.98
45763;BME280;37512;52.408;13.356;2023-09-19T13:56:39;100481.66;;;27.03;31.27
45763;BME280;37512;52.408;13.356;2023-09-19T14:00:41;100478.84;;;26.69;31.81
45763;BME280;37512;52.408;13.356;2023-09-19T14:04:43;100481.69;;;26.94;31.06
45763;BME280;37512;52.408;13.356;2023-09-19T14:08:45;100470.03;;;26.91;31.93
45763;BME280;37512;52.408;13.356;2023-09-19T14:12:51;100472.47;;;27.62;31.14
45763;BME280;37512;52.408;13.356;2023-09-19T14:16:53;100473.00;;;26.73;32.74
45763;BME280;37512;52.408;13.356;2023-09-19T14:20:54;100473.72;;;27.46;31.75
45763;BME280;37512;52.408;13.356;2023-09-19T14:24:56;100465.47;;;27.48;31.49
45763;BME280;37512;52.408;13.356;2023-09-19T14:28:57;100471.16;;;26.52;32.57
45763;BME280;37512;52.408;13.356;2023-09-19T14:33:00;100471.81;;;26.56;31.87
45763;BME280;37512;52.408;13.356;2023-09-19T14:37:02;100471.72;;;26.98;31.41
45763;BME280;37512;52.408;13.356;2023-09-19T14:41:06;100469.53;;;27.56;30.57
45763;BME280;37512;52.408;13.356;2023-09-19T14:45:08;100473.13;;;26.36;32.07
45763;BME280;37512;52.408;13.356;2023-09-19T14:49:11;100479.63;;;27.57;31.14
45763;BME280;37512;52.408;13.356;2023-09-19T14:53:12;100462.22;;;27.55;30.34
45763;BME280;37512;52.408;13.356;2023-09-19T14:57:14;100460.31;;;26.41;31.88
45763;BME280;37512;52.408;13.356;2023-09-19T15:01:16;100474.59;;;25.71;31.75
45763;BME280;37512;52.408;13.356;2023-09-19T15:05:18;100467.59;;;25.99;31.54
45763;BME280;37512;52.408;13.356;2023-09-19T15:09:22;100458.56;;;26.10;31.78
45763;BME280;37512;52.408;13.356;2023-09-19T15:13:27;100456.88;;;26.37;31.60
45763;BME280;37512;52.408;13.356;2023-09-19T15:17:31;100460.22;;;26.26;31.49
45763;BME280;37512;52.408;13.356;2023-09-19T15:21:32;100459.59;;;27.66;30.44
45763;BME280;37512;52.408;13.356;2023-09-19T15:25:34;100460.28;;;27.61;30.44
45763;BME280;37512;52.408;13.356;2023-09-19T15:29:36;100456.41;;;26.29;33.16
45763;BME280;37512;52.408;13.356;2023-09-19T15:33:38;100456.72;;;26.31;33.72
45763;BME280;37512;52.408;13.356;2023-09-19T15:37:41;100449.19;;;25.58;33.85
45763;BME280;37512;52.408;13.356;2023-09-19T15:41:45;100453.34;;;26.75;32.16
45763;BME280;37512;52.408;13.356;2023-09-19T15:45:48;100452.88;;;26.10;33.93
45763;BME280;37512;52.408;13.356;2023-09-19T15:49:50;100445.59;;;27.24;31.66
45763;BME280;37512;52.408;13.356;2023-09-19T15:53:52;100446.84;;;28.56;30.84
45763;BME280;37512;52.408;13.356;2023-09-19T15:57:54;100453.50;;;27.44;31.77
45763;BME280;37512;52.408;13.356;2023-09-19T16:01:57;100465.53;;;26.76;32.11
45763;BME280;37512;52.408;13.356;2023-09-19T16:05:59;100460.59;;;26.19;33.08
45763;BME280;37512;52.408;13.356;2023-09-19T16:10:02;100458.84;;;26.55;32.18
45763;BME280;37512;52.408;13.356;2023-09-19T16:14:04;100456.47;;;27.25;31.79
45763;BME280;37512;52.408;13.356;2023-09-19T16:18:08;100475.34;;;26.75;32.93
45763;BME280;37512;52.408;13.356;2023-09-19T16:22:10;100462.00;;;26.47;32.19
45763;BME280;37512;52.408;13.356;2023-09-19T16:26:12;100462.34;;;27.75;31.09
45763;BME280;37512;52.408;13.356;2023-09-19T16:30:16;100463.66;;;26.73;32.02
45763;BME280;37512;52.408;13.356;2023-09-19T16:34:19;100465.22;;;26.98;31.92
45763;BME280;37512;52.408;13.356;2023-09-19T16:38:24;100475.19;;;25.93;32.91
45763;BME280;37512;52.408;13.356;2023-09-19T16:42:25;100465.53;;;26.76;31.84
45763;BME280;37512;52.408;13.356;2023-09-19T16:46:28;100460.75;;;26.58;32.61
45763;BME280;37512;52.408;13.356;2023-09-19T16:50:31;100465.91;;;26.26;32.49
45763;BME280;37512;52.408;13.356;2023-09-19T16:54:33;100456.13;;;25.48;33.36
45763;BME280;37512;52.408;13.356;2023-09-19T16:58:41;100464.16;;;25.67;33.48
45763;BME280;37512;52.408;13.356;2023-09-19T17:02:45;100468.44;;;26.90;31.61
45763;BME280;37512;52.408;13.356;2023-09-19T17:06:52;100459.47;;;26.59;31.90
45763;BME280;37512;52.408;13.356;2023-09-19T17:11:11;100456.75;;;26.64;31.52
45763;BME280;37512;52.408;13.356;2023-09-19T17:15:14;100463.97;;;25.99;32.98
45763;BME280;37512;52.408;13.356;2023-09-19T17:19:16;100448.16;;;27.37;31.29
45763;BME280;37512;52.408;13.356;2023-09-19T17:23:17;100453.00;;;26.49;32.39
45763;BME280;37512;52.408;13.356;2023-09-19T17:27:19;100463.94;;;26.75;32.07
45763;BME280;37512;52.408;13.356;2023-09-19T17:31:22;100468.75;;;26.26;32.31
45763;BME280;37512;52.408;13.356;2023-09-19T17:35:26;100480.19;;;26.50;32.28
45763;BME280;37512;52.408;13.356;2023-09-19T17:39:27;100487.31;;;26.55;32.69
45763;BME280;37512;52.408;13.356;2023-09-19T17:43:32;100491.94;;;26.76;32.90
45763;BME280;37512;52.408;13.356;2023-09-19T17:47:39;100495.56;;;26.77;32.86
45763;BME280;37512;52.408;13.356;2023-09-19T17:51:40;100494.41;;;26.17;33.73
45763;BME280;37512;52.408;13.356;2023-09-19T17:55:42;100501.50;;;24.92;35.19
45763;BME280;37512;52.408;13.356;2023-09-19T17:59:43;100509.00;;;25.82;34.22
45763;BME280;37512;52.408;13.356;2023-09-19T18:03:46;100502.03;;;25.83;34.88
45763;BME280;37512;52.408;13.356;2023-09-19T18:07:48;100511.22;;;25.50;34.65
45763;BME280;37512;52.408;13.356;2023-09-19T18:11:49;100510.75;;;24.65;35.67
45763;BME280;37512;52.408;13.356;2023-09-19T18:15:51;100509.00;;;24.27;36.29
45763;BME280;37512;52.408;13.356;2023-09-19T18:19:53;100508.53;;;25.28;35.09
45763;BME280;37512;52.408;13.356;2023-09-19T18:23:57;100506.03;;;23.77;37.16
45763;BME280;37512;52.408;13.356;2023-09-19T18:27:59;100511.91;;;24.46;35.97
45763;BME280;37512;52.408;13.356;2023-09-19T18:32:00;100520.31;;;24.18;37.10
45763;BME280;37512;52.408;13.356;2023-09-19T18:36:07;100534.69;;;24.55;35.88
45763;BME280;37512;52.408;13.356;2023-09-19T18:40:09;100531.66;;;24.49;36.36
45763;BME280;37512;52.408;13.356;2023-09-19T18:44:14;100530.66;;;24.83;36.01
45763;BME280;37512;52.408;13.356;2023-09-19T18:48:16;100539.81;;;24.47;36.11
45763;BME280;37512;52.408;13.356;2023-09-19T18:52:18;100530.72;;;23.99;36.90
45763;BME280;37512;52.408;13.356;2023-09-19T18:56:20;100543.88;;;23.84;37.39
45763;BME280;37512;52.408;13.356;2023-09-19T19:00:21;100533.28;;;24.59;36.32
45763;BME280;37512;52.408;13.356;2023-09-19T19:04:27;100541.03;;;24.37;36.42
45763;BME280;37512;52.408;13.356;2023-09-19T19:08:28;100545.25;;;24.32;36.46
45763;BME280;37512;52.408;13.356;2023-09-19T19:12:32;100547.19;;;24.45;36.64
45763;BME280;37512;52.408;13.356;2023-09-19T19:16:34;100544.94;;;24.30;37.15
45763;BME280;37512;52.408;13.356;2023-09-19T19:20:38;100550.53;;;24.43;36.78
45763;BME280;37512;52.408;13.356;2023-09-19T19:24:39;100559.03;;;24.83;36.46
45763;BME280;37512;52.408;13.356;2023-09-19T19:28:41;100552.00;;;24.04;37.64
45763;BME280;37512;52.408;13.356;2023-09-19T19:32:46;100552.44;;;23.58;37.81
45763;BME280;37512;52.408;13.356;2023-09-19T19:36:48;100545.28;;;24.63;36.39
45763;BME280;37512;52.408;13.356;2023-09-19T19:41:00;100549.66;;;24.02;37.89
45763;BME280;37512;52.408;13.356;2023-09-19T19:45:04;100551.28;;;23.33;38.55
45763;BME280;37512;52.408;13.356;2023-09-19T19:49:08;100550.44;;;24.03;37.71
45763;BME280;37512;52.408;13.356;2023-09-19T19:53:10;100550.91;;;22.71;40.18
45763;BME280;37512;52.408;13.356;2023-09-19T19:57:12;100549.09;;;23.03;39.42
45763;BME280;37512;52.408;13.356;2023-09-19T20:01:15;100550.31;;;22.89;40.04
45763;BME280;37512;52.408;13.356;2023-09-19T20:05:17;100553.50;;;24.17;37.84
45763;BME280;37512;52.408;13.356;2023-09-19T20:09:19;100548.91;;;24.42;37.28
45763;BME280;37512;52.408;13.356;2023-09-19T20:13:22;100551.13;;;23.72;38.68
45763;BME280;37512;52.408;13.356;2023-09-19T20:17:23;100546.09;;;24.42;37.41
45763;BME280;37512;52.408;13.356;2023-09-19T20:21:25;100554.06;;;23.81;39.26
45763;BME280;37512;52.408;13.356;2023-09-19T20:25:27;100540.53;;;23.63;38.84
45763;BME280;37512;52.408;13.356;2023-09-19T20:29:33;100544.91;;;23.77;39.00
45763;BME280;37512;52.408;13.356;2023-09-19T20:33:35;100540.56;;;23.50;38.69
45763;BME280;37512;52.408;13.356;2023-09-19T20:37:39;100542.56;;;24.60;38.00
45763;BME280;37512;52.408;13.356;2023-09-19T20:41:40;100541.81;;;24.69;37.40
45763;BME280;37512;52.408;13.356;2023-09-19T20:45:42;100536.78;;;24.41;38.22
45763;BME280;37512;52.408;13.356;2023-09-19T20:49:43;100543.66;;;23.08;39.54
45763;BME280;37512;52.408;13.356;2023-09-19T20:53:45;100537.00;;;22.76;40.38
45763;BME280;37512;52.408;13.356;2023-09-19T20:57:47;100534.03;;;22.93;40.24
45763;BME280;37512;52.408;13.356;2023-09-19T21:01:49;100539.88;;;23.81;38.71
45763;BME280;37512;52.408;13.356;2023-09-19T21:06:09;100518.03;;;24.13;37.56
45763;BME280;37512;52.408;13.356;2023-09-19T21:10:15;100528.72;;;23.65;38.67
45763;BME280;37512;52.408;13.356;2023-09-19T21:14:16;100528.66;;;23.90;38.53
45763;BME280;37512;52.408;13.356;2023-09-19T21:18:18;100531.84;;;24.01;38.29
45763;BME280;37512;52.408;13.356;2023-09-19T21:22:19;100543.66;;;24.31;37.48
45763;BME280;37512;52.408;13.356;2023-09-19T21:26:21;100542.53;;;23.41;39.19
45763;BME280;37512;52.408;13.356;2023-09-19T21:30:22;100534.47;;;23.52;39.31
45763;BME280;37512;52.408;13.356;2023-09-19T21:34:32;100527.88;;;23.55;38.79
45763;BME280;37512;52.408;13.356;2023-09-19T21:38:33;100530.66;;;23.68;39.03